Terminal Aerodrome Forecast
Issued by NWS

Home | Current Version | Previous Version | Text Only | Print | Product List | Glossary On
Versions: 1 2 3 4 5 6 7 8 9 10 11 12
000
FTUS46 KPDT 272300
TAFPSC
TAF
KPSC 272320Z 2800/2824 22007KT P6SM SKC
     FM280200 28008KT P6SM SKC
     FM280600 VRB05KT P6SM SKC
     FM281600 22007KT P6SM FEW250
     FM282000 25011KT P6SM SCT200=

USA.gov is the U.S. government's official web portal to all federal, state and local government web resources and services.